Tieling, China
Current Conditions -  °F | °C
As of 8:00 AM on Thursday 29 Jan 2015 (Local Time) from ZYTX Reporting Station
Smoke Smoke  
Wind Chill:   Ceiling: Unl
Heat Index:   Visibility: 3mi
Dew Point: -2°   Wind: 4mph
Humidity: 62%   Direction: 150°SSE
Pressure: 30.33"   Gusts: NA
Location:  42.3°N, 123.82°E
Report Text: ZYTX 290000Z 15002MPS 5000 FU NSC M13/M19 Q1027 NOSIG
Loading
Personal Weather Stations






























Interactive Weather Map New forecast layout! Learn more

10-Day Weather Forecast

Advertisements
Track Severe Weather on mobile